This is the latest recevied weather packets stored in our database for station/object OE3FJB-25. If no packets are shown the sender has not sent any weather packets the latest 10 day(s).
| Time | Temp. | Humidity | Pressure | Rain* | Wind** | Luminosity | Snow |
|---|---|---|---|---|---|---|---|
| 1777865762 | 13.89° C | 99% | 1017 hPa | - | - | - | - |
| 1777863967 | 13.89° C | 99% | 1017 hPa | - | - | - | - |
| 1777846604 | 12.78° C | 99% | 1016.8 hPa | - | - | - | - |
| 1777845407 | 13.33° C | 99% | 1016.8 hPa | - | - | - | - |
| 1777844210 | 13.33° C | 99% | 1016.8 hPa | - | - | - | - |
| 1777843012 | 13.33° C | 99% | 1016.8 hPa | - | - | - | - |
| 1777842414 | 13.33° C | 99% | 1016.9 hPa | - | - | - | - |
| 1777840618 | 13.33° C | 99% | 1017.1 hPa | - | - | - | - |
| 1777840019 | 13.33° C | 99% | 1017.2 hPa | - | - | - | - |
| 1777839421 | 13.89° C | 99% | 1017.2 hPa | - | - | - | - |
| 1777838822 | 13.89° C | 99% | 1017.3 hPa | - | - | - | - |
| 1777837625 | 14.44° C | 99% | 1017.5 hPa | - | - | - | - |
| 1777836428 | 15.56° C | 99% | 1017.5 hPa | - | - | - | - |
| 1777835829 | 15.56° C | 98% | 1017.5 hPa | - | - | - | - |
| 1777834632 | 16.11° C | 91% | 1017.5 hPa | - | - | - | - |
| 1777834033 | 16.67° C | 87% | 1017.6 hPa | - | - | - | - |
| 1777832836 | 17.22° C | 81% | 1017.4 hPa | - | - | - | - |
| 1777828047 | 19.44° C | 55% | 1017.5 hPa | - | - | - | - |
| 1777826850 | 19.44° C | 51% | 1017.5 hPa | - | - | - | - |
| 1777826249 | 20° C | 49% | 1017.5 hPa | - | - | - | - |
| 1777825650 | 20° C | 47% | 1017.6 hPa | - | - | - | - |
| 1777823256 | 21.11° C | 41% | 1017.6 hPa | - | - | - | - |
| 1777822059 | 21.67° C | 39% | 1017.6 hPa | - | - | - | - |
| 1777821460 | 21.67° C | 38% | 1017.6 hPa | - | - | - | - |
| 1777819066 | 22.22° C | 37% | 1018 hPa | - | - | - | - |
* Rain since midnight (hover to see other rain measurements)
** Current wind speed in m/s (hover to see current wind gust speed)